LFOP/URO METAR and TAF weather

Enter ICAO airport designator
Station Type Date Time Source
LFOP METAR 2020/07/12 20:00 UTC NOAA

LFOP 122000Z AUTO 01009KT CAVOK 17/10 Q1025 NOSIG


Station Type Date Time Source
LFOP Decoded METAR 2020/07/12 20:00 UTC NOAA

Rouen, France (LFOP) 49-23N 001-11E 157M
Jul 12, 2020 - 04:00 PM EDT / 2020.07.12 2000 UTC
Wind: from the N (010 degrees) at 10 MPH (9 KT):0
Visibility: greater than 7 mile(s):0
Temperature: 62 F (17 C)
Dew Point: 50 F (10 C)
Relative Humidity: 63%
Pressure (altimeter): 30.27 in. Hg (1025 hPa)
ob: LFOP 122000Z AUTO 01009KT CAVOK 17/10 Q1025 NOSIG
cycle: 20

Station Type Date Time Source
LFOP TAF 2020/07/12 18:22 UTC NOAA

TAF LFOP 121700Z 1218/1318 04007KT CAVOK

Example: see airport list